Comodoro Rivadavia/General Enrique Mosconi International Airport

Airport
ICAO code: 
SAVC
IATA Code: 
CRD
Summary
ICAO Region: 
CARSAM
Territory: 
Location: 
Comodoro Rivadavia, Chubut
Serving: 
Comodoro Rivadavia
Elevation: 
190 ft
Coordinates: 
Aerial View: 
45° 47' 11.527" S, 67° 27' 57.087" W
Metar
Observation
SAVC 200000Z 10009KT CAVOK 17/14 Q1022 RMK PP000
Station
Comodoro Rivadavia Aerodrome
Date/Time
2022-01-20 00:00:00
Wind direction
100°
Wind speed
09 kts
Lowest cloud amount
clouds and visibility OK
Temperature
17°C
Dew point
14°C
Humidity
82%
QNH
1022 hPa
Weather condition
n/a

General Enrique Mosconi International Airport is an international airport in the Chubut Province, Argentina serving Comodoro Rivadavia. The airfield is located 11 km of the city.

Runways

Designator Length Width Surface Rops
7/25 2810 50 CON No/No
Airport map: 
Aerial View: 

SKYbrary Partners:

Safety knowledge contributed by: